Time;durP1;ratioP1;P1;durP2;ratioP2;P2;SDS_P1;SDS_P2;PMS_P1;PMS_P2;Temp;Humidity;BMP_temperature;BMP_pressure;BME280_temperature;BME280_humidity;BME280_pressure;Samples;Min_cycle;Max_cycle;Signal;HPM_P1;HPM_P2
2024/01/21 00:05:02;;;;;;;26.20;12.60;;;;;;;0.11;85.04;101094.56;220247;1256;140307;-76
2024/01/21 00:10:09;;;;;;;21.30;11.60;;;;;;;0.14;85.08;101098.29;218569;1256;140383;-75
2024/01/21 00:15:13;;;;;;;15.80;10.70;;;;;;;0.15;84.80;101105.52;217512;1256;140486;-75
2024/01/21 00:20:18;;;;;;;21.00;11.00;;;;;;;0.16;84.85;101112.81;217326;1259;140830;-72
2024/01/21 00:25:23;;;;;;;24.30;11.40;;;;;;;0.15;85.04;101114.85;217148;1258;141868;-72
2024/01/21 00:30:29;;;;;;;17.30;9.50;;;;;;;0.14;85.09;101117.52;217380;1256;141201;-72
2024/01/21 00:35:34;;;;;;;23.70;11.60;;;;;;;0.13;85.09;101109.17;217113;1257;139506;-73
2024/01/21 00:40:39;;;;;;;23.00;12.60;;;;;;;0.14;85.26;101105.46;217174;1257;140339;-73
2024/01/21 00:45:44;;;;;;;20.60;12.30;;;;;;;0.15;85.16;101117.61;217438;1259;208950;-73
2024/01/21 00:50:49;;;;;;;21.10;13.10;;;;;;;0.17;85.17;101124.30;217773;1255;139769;-74
2024/01/21 00:55:55;;;;;;;20.60;12.50;;;;;;;0.17;85.13;101123.73;217270;1257;139696;-74
2024/01/21 01:01:00;;;;;;;21.60;13.30;;;;;;;0.17;85.10;101125.65;217101;1259;140898;-74
2024/01/21 01:06:05;;;;;;;22.20;12.00;;;;;;;0.15;85.15;101130.86;217307;1259;141099;-75
2024/01/21 01:11:09;;;;;;;20.80;11.40;;;;;;;0.14;84.72;101135.93;217018;1257;140372;-74
2024/01/21 01:16:14;;;;;;;19.50;11.30;;;;;;;0.13;84.96;101140.16;218219;1256;141737;-74
2024/01/21 01:21:19;;;;;;;24.10;13.80;;;;;;;0.12;85.29;101145.53;217101;1259;141305;-73
2024/01/21 01:26:23;;;;;;;26.10;11.60;;;;;;;0.11;84.77;101150.11;218269;1255;140393;-71
2024/01/21 01:31:28;;;;;;;17.80;10.90;;;;;;;0.09;84.82;101156.02;217078;1257;141309;-73
2024/01/21 01:36:33;;;;;;;20.20;11.80;;;;;;;0.08;84.88;101159.17;217338;1259;140139;-74
2024/01/21 01:41:38;;;;;;;16.90;10.90;;;;;;;0.05;84.65;101163.73;217302;1257;139615;-73
2024/01/21 01:46:43;;;;;;;23.00;12.90;;;;;;;0.04;85.20;101167.02;217294;1257;140810;-74
2024/01/21 01:51:48;;;;;;;27.50;15.10;;;;;;;0.05;85.18;101170.80;217340;1257;140005;-76
2024/01/21 01:56:55;;;;;;;18.50;9.70;;;;;;;0.04;84.80;101177.70;219473;1256;141148;-75
2024/01/21 02:02:01;;;;;;;27.90;11.80;;;;;;;-0.01;84.87;101181.27;217638;1256;140116;-75
2024/01/21 02:07:04;;;;;;;21.20;11.90;;;;;;;-0.00;85.21;101179.80;217269;1256;154400;-74
2024/01/21 02:12:12;;;;;;;22.30;12.20;;;;;;;0.00;85.06;101180.76;217088;1259;140743;-74
2024/01/21 02:17:17;;;;;;;20.50;10.80;;;;;;;0.01;85.08;101181.25;217260;1257;140363;-75
2024/01/21 02:22:24;;;;;;;17.40;10.90;;;;;;;-0.00;85.06;101192.02;217104;1256;142955;-74
2024/01/21 02:27:29;;;;;;;24.50;12.80;;;;;;;-0.03;85.02;101194.48;217056;1257;140368;-74
2024/01/21 02:32:34;;;;;;;19.10;11.00;;;;;;;-0.03;85.07;101193.26;217654;1256;140756;-74
2024/01/21 02:37:40;;;;;;;23.10;12.30;;;;;;;-0.03;84.91;101194.52;217111;1259;140000;-74
2024/01/21 02:42:44;;;;;;;20.30;11.80;;;;;;;-0.06;85.06;101192.63;217230;1256;141258;-75
2024/01/21 02:47:49;;;;;;;25.50;11.50;;;;;;;-0.08;85.15;101193.67;217139;1257;140235;-74
2024/01/21 02:52:53;;;;;;;21.60;12.20;;;;;;;-0.08;85.46;101196.67;217145;1256;140446;-74
2024/01/21 02:57:59;;;;;;;19.70;10.80;;;;;;;-0.08;85.20;101197.02;216944;1256;139813;-74
2024/01/21 03:03:10;;;;;;;22.20;10.70;;;;;;;-0.14;85.33;101196.64;217093;1257;141789;-76
2024/01/21 03:08:15;;;;;;;22.10;12.80;;;;;;;-0.15;85.53;101199.91;217150;1257;142106;-74
2024/01/21 03:13:20;;;;;;;27.10;13.70;;;;;;;-0.15;85.97;101198.70;217286;1257;140076;-73
2024/01/21 03:18:25;;;;;;;20.00;12.90;;;;;;;-0.15;85.81;101207.59;217076;1259;141942;-75
2024/01/21 03:23:30;;;;;;;20.80;12.30;;;;;;;-0.18;85.51;101210.67;217300;1257;141518;-74
2024/01/21 03:28:35;;;;;;;22.40;11.70;;;;;;;-0.24;85.76;101220.92;216422;1259;684733;-75
2024/01/21 03:33:39;;;;;;;20.30;11.50;;;;;;;-0.27;85.68;101224.85;217135;1258;140813;-75
2024/01/21 03:38:45;;;;;;;21.60;11.40;;;;;;;-0.28;86.23;101224.57;217072;1259;140722;-74
2024/01/21 03:43:50;;;;;;;24.20;13.70;;;;;;;-0.29;85.81;101229.19;217177;1256;139871;-74
2024/01/21 03:48:55;;;;;;;20.50;10.90;;;;;;;-0.26;86.07;101230.35;218582;1255;140278;-76
2024/01/21 03:54:00;;;;;;;17.10;13.10;;;;;;;-0.22;86.13;101234.26;217029;1257;140585;-74
2024/01/21 03:59:04;;;;;;;22.20;12.30;;;;;;;-0.19;86.30;101233.46;219667;1255;139994;-76
2024/01/21 04:04:11;;;;;;;22.50;12.00;;;;;;;-0.15;86.09;101227.50;220313;1256;140812;-77
2024/01/21 04:09:22;;;;;;;20.90;13.00;;;;;;;-0.11;86.03;101223.50;217965;1255;140053;-77
2024/01/21 04:14:27;;;;;;;26.50;14.10;;;;;;;-0.09;86.10;101229.29;217735;1256;140568;-75
2024/01/21 04:19:33;;;;;;;26.20;12.50;;;;;;;-0.06;85.98;101241.25;218085;1256;140117;-75
2024/01/21 04:24:37;;;;;;;21.20;12.40;;;;;;;-0.07;86.09;101240.99;217372;1256;140699;-75
2024/01/21 04:29:43;;;;;;;26.30;12.10;;;;;;;-0.11;85.73;101239.28;217131;1259;139684;-74
2024/01/21 04:34:49;;;;;;;23.80;12.40;;;;;;;-0.14;86.08;101245.13;217052;1256;139921;-73
2024/01/21 04:39:53;;;;;;;20.50;12.60;;;;;;;-0.14;85.97;101248.91;217359;1257;141953;-71
2024/01/21 04:44:58;;;;;;;26.10;14.90;;;;;;;-0.14;86.08;101249.98;217575;1256;139922;-74
2024/01/21 04:50:03;;;;;;;25.10;14.70;;;;;;;-0.15;86.08;101251.06;217086;1257;139803;-74
2024/01/21 04:55:08;;;;;;;26.60;13.60;;;;;;;-0.14;86.19;101251.73;217064;1259;141016;-73
2024/01/21 05:00:15;;;;;;;16.30;10.80;;;;;;;-0.15;86.18;101253.90;217278;1259;140936;-74
2024/01/21 05:05:20;;;;;;;21.60;12.50;;;;;;;-0.20;86.05;101250.11;218027;1256;139664;-75
2024/01/21 05:10:24;;;;;;;23.50;13.40;;;;;;;-0.25;85.88;101251.20;217302;1258;208994;-74
2024/01/21 05:15:29;;;;;;;27.40;14.40;;;;;;;-0.24;86.30;101257.14;217318;1257;141092;-73
2024/01/21 05:20:34;;;;;;;28.90;15.80;;;;;;;-0.22;86.58;101258.19;218862;1256;140059;-73
2024/01/21 05:25:38;;;;;;;24.10;14.10;;;;;;;-0.21;86.53;101255.46;217595;1257;140240;-73
2024/01/21 05:30:44;;;;;;;23.50;13.60;;;;;;;-0.25;86.08;101261.86;217295;1256;140648;-73
2024/01/21 05:35:48;;;;;;;31.70;15.20;;;;;;;-0.25;86.03;101270.48;217830;1256;139727;-75
2024/01/21 05:40:54;;;;;;;27.20;15.00;;;;;;;-0.26;86.34;101278.92;220019;1256;139761;-77
2024/01/21 05:45:58;;;;;;;21.10;13.60;;;;;;;-0.23;86.16;101286.01;218407;1255;141638;-77
2024/01/21 05:51:03;;;;;;;28.10;14.00;;;;;;;-0.20;86.43;101277.17;217743;1257;140691;-77
2024/01/21 05:56:08;;;;;;;14.90;8.20;;;;;;;-0.18;86.36;101279.86;217329;1257;140893;-77
2024/01/21 06:01:13;;;;;;;28.30;13.60;;;;;;;-0.19;86.41;101279.09;220101;1256;139949;-76
2024/01/21 06:06:17;;;;;;;20.90;13.50;;;;;;;-0.18;86.20;101272.86;217640;1257;140374;-77
2024/01/21 06:11:23;;;;;;;39.30;16.10;;;;;;;-0.19;86.41;101278.84;217271;1259;139770;-77
2024/01/21 06:16:28;;;;;;;23.10;14.40;;;;;;;-0.20;86.37;101278.11;218312;1255;139821;-76
2024/01/21 06:21:33;;;;;;;22.90;14.00;;;;;;;-0.20;86.32;101284.76;217492;1259;154252;-76
2024/01/21 06:26:37;;;;;;;20.80;12.80;;;;;;;-0.20;86.13;101290.11;217289;1259;141158;-76
2024/01/21 06:31:42;;;;;;;26.30;14.60;;;;;;;-0.23;86.31;101292.63;217165;1255;139814;-75
2024/01/21 06:36:48;;;;;;;25.50;14.00;;;;;;;-0.22;86.61;101291.75;217168;1257;140989;-75
2024/01/21 06:41:56;;;;;;;23.20;11.80;;;;;;;-0.22;86.22;101298.15;217154;1257;139934;-71
2024/01/21 06:47:00;;;;;;;22.70;14.60;;;;;;;-0.24;86.01;101300.59;217053;1256;140755;-75
2024/01/21 06:52:07;;;;;;;23.50;13.80;;;;;;;-0.25;86.26;101300.69;217108;1257;139979;-71
2024/01/21 06:57:11;;;;;;;19.80;12.80;;;;;;;-0.26;86.53;101303.89;217557;1257;140294;-71
2024/01/21 07:02:15;;;;;;;36.20;15.70;;;;;;;-0.25;86.74;101302.07;218352;1259;140163;-75
2024/01/21 07:07:19;;;;;;;26.60;14.20;;;;;;;-0.20;86.65;101310.92;217270;1259;141527;-73
2024/01/21 07:12:23;;;;;;;27.80;14.10;;;;;;;-0.15;86.62;101308.96;217469;1256;140151;-73
2024/01/21 07:17:26;;;;;;;17.00;11.30;;;;;;;-0.12;86.38;101312.02;217419;1259;140593;-75
2024/01/21 07:22:31;;;;;;;25.70;13.70;;;;;;;-0.11;86.69;101313.48;217336;1256;140152;-75
2024/01/21 07:27:35;;;;;;;;;;;;;;;-0.06;86.59;101323.36;217304;1257;142371;-73
2024/01/21 07:32:39;;;;;;;;;;;;;;;0.02;86.73;101326.21;217998;1257;126964;-71
2024/01/21 07:37:43;;;;;;;;;;;;;;;0.11;86.70;101329.80;217731;1257;125797;-68
2024/01/21 07:42:46;;;;;;;;;;;;;;;0.19;86.40;101331.80;217778;1259;127106;-71
2024/01/21 07:47:52;;;;;;;;;;;;;;;0.23;86.16;101337.85;217565;1256;126082;-74
2024/01/21 07:52:55;;;;;;;;;;;;;;;0.29;85.97;101335.48;218124;1257;126063;-73
2024/01/21 07:58:01;;;;;;;;;;;;;;;0.33;85.78;101339.80;217891;1259;126343;-75
2024/01/21 08:03:05;;;;;;;;;;;;;;;0.36;86.28;101340.13;217455;1256;125910;-76
2024/01/21 08:08:09;;;;;;;;;;;;;;;0.46;85.82;101350.86;217206;1255;126354;-76
2024/01/21 08:13:13;;;;;;;;;;;;;;;0.55;85.58;101347.99;217376;1259;128368;-76
2024/01/21 08:18:18;;;;;;;;;;;;;;;0.67;86.01;101340.83;218250;1256;125880;-75
2024/01/21 08:23:25;;;;;;;;;;;;;;;0.70;85.49;101346.84;217299;1259;126251;-73
2024/01/21 08:28:30;;;;;;;;;;;;;;;0.74;85.53;101348.73;217440;1257;126843;-74
2024/01/21 08:33:36;;;;;;;;;;;;;;;0.80;85.38;101338.81;217328;1257;126590;-74
2024/01/21 08:38:41;;;;;;;;;;;;;;;0.79;84.89;101341.16;217323;1256;126629;-74
2024/01/21 08:43:46;;;;;;;;;;;;;;;0.82;85.17;101340.67;217401;1257;128491;-77
2024/01/21 08:48:50;;;;;;;;;;;;;;;1.01;85.36;101344.52;217213;1259;126615;-75
2024/01/21 08:53:57;;;;;;;;;;;;;;;1.20;84.80;101349.83;217283;1257;127869;-76
2024/01/21 08:59:00;;;;;;;;;;;;;;;1.29;84.78;101343.73;217381;1259;127163;-76
2024/01/21 09:04:04;;;;;;;;;;;;;;;1.18;84.01;101342.48;218173;1259;126964;-76
2024/01/21 09:09:11;;;;;;;;;;;;;;;1.04;84.01;101335.88;217328;1257;126176;-76
2024/01/21 09:14:20;;;;;;;;;;;;;;;1.10;84.15;101337.95;217746;1259;127669;-73
2024/01/21 09:19:23;;;;;;;;;;;;;;;1.08;83.96;101341.09;217568;1256;126668;-73
2024/01/21 09:24:28;;;;;;;;;;;;;;;1.12;84.21;101334.83;217311;1257;126669;-73
2024/01/21 09:29:32;;;;;;;;;;;;;;;1.23;84.45;101335.70;217451;1255;126217;-72
2024/01/21 09:34:39;;;;;;;;;;;;;;;1.40;84.02;101332.61;218716;1259;127192;-76
2024/01/21 09:39:44;;;;;;;;;;;;;;;1.62;83.46;101332.73;218107;1259;125800;-73
2024/01/21 09:44:49;;;;;;;;;;;;;;;1.81;83.62;101329.95;220593;1256;126773;-76
2024/01/21 09:49:53;;;;;;;;;;;;;;;2.00;83.64;101335.94;220574;1257;127138;-73
2024/01/21 09:54:57;;;;;;;;;;;;;;;2.20;83.44;101333.15;219104;1259;126735;-74
2024/01/21 10:00:02;;;;;;;;;;;;;;;2.27;82.68;101334.48;217372;1259;127003;-75
2024/01/21 10:05:06;;;;;;;;;;;;;;;2.20;82.39;101328.77;217689;1257;127168;-73
2024/01/21 10:10:13;;;;;;;;;;;;;;;2.20;82.18;101324.43;217378;1259;126353;-72
2024/01/21 10:15:18;;;;;;;;;;;;;;;2.25;81.99;101315.04;217318;1259;125977;-70
2024/01/21 10:20:22;;;;;;;;;;;;;;;2.39;82.03;101307.95;217523;1255;126290;-71
2024/01/21 10:25:26;;;;;;;;;;;;;;;2.41;81.56;101307.05;217325;1259;126457;-72
2024/01/21 10:30:30;;;;;;;;;;;;;;;2.38;81.37;101303.83;217696;1259;126699;-74
2024/01/21 10:35:36;;;;;;;;;;;;;;;2.47;81.68;101300.73;217433;1257;126532;-73
2024/01/21 10:40:44;;;;;;;;;;;;;;;2.56;81.67;101295.98;217504;1257;125796;-72
2024/01/21 10:45:49;;;;;;;;;;;;;;;2.68;81.47;101289.94;217653;1257;125815;-71
2024/01/21 10:50:54;;;;;;;;;;;;;;;2.78;81.18;101284.94;217352;1257;128787;-71
2024/01/21 10:55:59;;;;;;;;;;;;;;;2.78;80.81;101288.08;217415;1257;127171;-71
2024/01/21 11:01:05;;;;;;;;;;;;;;;2.90;80.99;101282.55;217315;1259;125839;-71
2024/01/21 11:06:11;;;;;;;;;;;;;;;2.99;80.57;101292.68;217180;1257;137656;-71
2024/01/21 11:11:17;;;;;;;;;;;;;;;3.07;80.83;101296.02;218564;1257;126597;-71
2024/01/21 11:16:30;;;;;;;;;;;;;;;3.10;80.26;101293.25;217308;1259;126795;-72
2024/01/21 11:21:40;;;;;;;;;;;;;;;3.08;80.18;101283.94;217685;1257;127945;-72
2024/01/21 11:26:47;;;;;;;;;;;;;;;3.17;80.25;101278.03;219545;1257;126221;-71
2024/01/21 11:31:51;;;;;;;;;;;;;;;3.05;79.44;101272.63;217862;1257;126084;-76
2024/01/21 11:36:57;;;;;;;;;;;;;;;2.99;79.40;101257.02;217441;1259;126313;-72
2024/01/21 11:42:03;;;;;;;;;;;;;;;2.89;79.10;101250.64;217509;1255;126092;-73
2024/01/21 11:47:07;;;;;;;;;;;;;;;2.91;79.20;101249.42;217355;1259;127525;-74
2024/01/21 11:52:12;;;;;;;;;;;;;;;3.05;79.58;101251.17;217638;1256;127977;-76
2024/01/21 11:57:16;;;;;;;;;;;;;;;3.17;78.97;101241.91;217593;1257;127148;-76
2024/01/21 12:02:20;;;;;;;;;;;;;;;3.14;78.79;101222.77;217695;1257;127934;-77
2024/01/21 12:07:26;;;;;;;;;;;;;;;3.13;78.44;101224.66;217378;1257;126519;-75
2024/01/21 12:12:31;;;;;;;;;;;;;;;3.14;78.46;101233.15;217207;1259;127080;-76
2024/01/21 12:17:37;;;;;;;;;;;;;;;3.17;78.51;101240.23;217727;1259;126282;-75
2024/01/21 12:22:42;;;;;;;;;;;;;;;3.22;78.39;101229.48;217438;1259;126750;-75
2024/01/21 12:27:47;;;;;;;;;;;;;;;3.19;78.17;101221.60;217385;1257;126626;-77
2024/01/21 12:32:51;;;;;;;;;;;;;;;3.17;77.76;101219.54;217943;1257;126494;-78
2024/01/21 12:38:02;;;;;;;;;;;;;;;3.08;77.83;101213.39;217535;1257;127309;-78
2024/01/21 12:43:06;;;;;;;;;;;;;;;3.05;77.67;101214.73;217681;1255;137961;-78
2024/01/21 12:48:10;;;;;;;;;;;;;;;2.99;77.94;101206.86;218040;1259;125963;-72
2024/01/21 12:53:14;;;;;;;;;;;;;;;2.94;77.70;101200.47;217632;1257;126525;-72
2024/01/21 12:58:21;;;;;;;;;;;;;;;2.94;77.57;101210.67;217567;1257;126432;-72
2024/01/21 13:03:27;;;;;;;;;;;;;;;2.99;77.71;101208.55;217506;1257;126174;-73
2024/01/21 13:08:33;;;;;;;;;;;;;;;3.08;77.54;101208.80;217955;1257;137716;-77
2024/01/21 13:13:38;;;;;;;;;;;;;;;3.10;77.48;101206.82;217655;1259;126416;-74
2024/01/21 13:18:44;;;;;;;;;;;;;;;3.11;77.33;101202.02;217803;1259;126815;-77
2024/01/21 13:23:49;;;;;;;;;;;;;;;3.11;77.28;101190.77;217539;1257;147177;-76
2024/01/21 13:34:14;;;;;;;;;;;;;;;3.00;77.03;101175.80;217426;1259;125659;-72
2024/01/21 13:39:21;;;;;;;;;;;;;;;2.91;76.83;101167.07;217543;1258;125758;-69
2024/01/21 13:44:31;;;;;;;;;;;;;;;2.78;76.87;101168.13;217609;1259;126753;-75
2024/01/21 13:49:37;;;;;;;;;;;;;;;2.68;76.90;101161.26;217547;1259;128250;-76
2024/01/21 13:54:41;;;;;;;;;;;;;;;2.62;77.05;101153.76;218757;1257;126904;-74
2024/01/21 13:59:47;;;;;;;;;;;;;;;2.54;76.69;101147.01;217506;1257;125694;-73
2024/01/21 14:04:51;;;;;;;;;;;;;;;2.39;76.82;101144.23;217483;1257;125726;-72
2024/01/21 14:09:56;;;;;;;;;;;;;;;2.30;77.03;101151.36;217782;1261;125568;-73
2024/01/21 14:15:01;;;;;;;;;;;;;;;2.25;76.91;101154.91;217723;1257;126756;-72
2024/01/21 14:20:05;;;;;;;;;;;;;;;2.18;76.85;101152.61;217763;1260;125873;-75
2024/01/21 14:25:19;;;;;;;;;;;;;;;2.05;76.83;101144.04;217623;1262;126016;-69
2024/01/21 14:30:26;;;;;;;;;;;;;;;1.98;77.13;101137.70;217647;1260;126267;-74
2024/01/21 14:35:31;;;;;;;;;;;;;;;1.95;77.25;101136.34;217710;1260;126413;-73
2024/01/21 14:40:34;;;;;;;;;;;;;;;1.91;77.41;101131.48;217594;1259;125827;-75
2024/01/21 14:45:38;;;;;;;;;;;;;;;1.84;77.51;101120.52;217742;1260;126788;-74
2024/01/21 14:50:42;;;;;;;;;;;;;;;1.75;77.27;101110.42;217671;1261;126271;-72
2024/01/21 14:55:47;;;;;;;;;;;;;;;1.59;77.39;101096.44;217962;1263;127040;-74
2024/01/21 15:00:51;;;;;;;;;;;;;;;1.43;77.35;101083.46;217798;1258;125928;-73
2024/01/21 15:05:55;;;;;;;;;;;;;;;1.20;77.23;101065.66;217774;1260;125929;-73
2024/01/21 15:11:00;;;;;;;;;;;;;;;1.06;77.76;101057.80;217915;1260;125851;-75
2024/01/21 15:16:05;;;;;;;;;;;;;;;0.94;77.63;101047.16;217743;1257;128061;-72
2024/01/21 15:21:09;;;;;;;;;;;;;;;0.82;78.21;101037.59;218612;1260;126134;-69
2024/01/21 15:26:14;;;;;;;;;;;;;;;0.74;78.46;101027.92;217426;1260;126104;-72
2024/01/21 15:31:30;;;;;;;;;;;;;;;0.67;78.49;101031.27;217618;1260;513775;-71
2024/01/21 15:36:34;;;;;;;;;;;;;;;0.64;78.82;101040.67;217915;1260;126580;-75
2024/01/21 15:41:39;;;;;;;;;;;;;;;0.62;79.27;101047.47;218779;1260;126165;-72
2024/01/21 15:46:46;;;;;;;;;;;;;;;0.62;79.25;101035.07;217979;1257;125941;-71
2024/01/21 15:51:50;;;;;;;;;;;;;;;0.61;79.35;101041.08;217633;1260;125870;-72
2024/01/21 15:56:54;;;;;;;;;;;;;;;0.63;79.59;101043.58;217698;1260;127310;-72
2024/01/21 16:01:58;;;;;;;;;;;;;;;0.65;79.76;101059.40;217909;1258;126317;-73
2024/01/21 16:07:01;;;;;;;;;;;;;;;0.64;79.70;101064.59;217803;1261;125976;-75
2024/01/21 16:12:06;;;;;;;;;;;;;;;0.61;79.87;101057.19;217658;1256;127031;-75
2024/01/21 16:17:13;;;;;;;;;;;;;;;0.59;80.04;101043.77;217462;1257;127976;-72
2024/01/21 16:22:17;;;;;;;;;;;;;;;0.59;80.16;101027.11;217327;1260;126422;-74
2024/01/21 16:27:22;;;;;;;;;;;;;;;0.60;80.24;101016.50;217830;1258;126283;-71
2024/01/21 16:32:35;;;;;;;;;;;;;;;0.61;80.36;101010.27;218288;1260;126189;-72
2024/01/21 16:37:39;;;;;;;;;;;;;;;0.62;80.08;101028.04;217449;1261;126589;-69
2024/01/21 16:42:43;;;;;;;;;;;;;;;0.64;80.52;101012.95;218031;1258;126022;-71
2024/01/21 16:47:50;;;;;;;;;;;;;;;0.64;80.35;100995.16;217907;1257;126566;-74
2024/01/21 16:52:55;;;;;;;;;;;;;;;0.62;80.26;100986.05;217506;1261;127235;-74
2024/01/21 16:58:00;;;;;;;;;;;;;;;0.60;80.42;100993.94;217239;1261;126780;-74
2024/01/21 17:03:05;;;;;;;;;;;;;;;0.63;80.64;101013.21;218528;1258;126116;-73
2024/01/21 17:08:09;;;;;;;;;;;;;;;0.67;80.54;101012.04;218134;1257;126685;-72
2024/01/21 17:13:14;;;;;;;;;;;;;;;0.66;80.38;100949.47;217922;1257;126095;-73
2024/01/21 17:18:20;;;;;;;;;;;;;;;0.61;80.88;100889.48;217990;1257;126556;-70
2024/01/21 17:23:24;;;;;;;;;;;;;;;0.61;80.96;100955.05;217588;1257;127618;-68
2024/01/21 17:28:28;;;;;;;;;;;;;;;0.66;80.69;100987.15;217990;1257;126170;-70
2024/01/21 17:33:32;;;;;;;;;;;;;;;0.68;80.94;100969.30;218892;1257;126288;-69
2024/01/21 17:38:36;;;;;;;;;;;;;;;0.66;80.52;100959.11;218049;1257;126521;-71
2024/01/21 17:43:40;;;;;;;;;;;;;;;0.63;80.90;100938.27;217519;1260;125957;-69
2024/01/21 17:48:48;;;;;;;;;;;;;;;0.59;80.73;100944.40;218017;1257;126359;-68
2024/01/21 17:53:54;;;;;;;;;;;;;;;0.58;80.97;100949.95;218058;1257;125921;-69
2024/01/21 17:58:58;;;;;;;;;;;;;;;0.56;80.73;100938.88;218219;1257;126007;-69
2024/01/21 18:04:06;;;;;;;;;;;;;;;0.57;80.89;100947.19;218302;1258;125773;-70
2024/01/21 18:09:12;;;;;;;;;;;;;;;0.59;80.97;100923.60;218360;1257;126151;-71
2024/01/21 18:14:16;;;;;;;;;;;;;;;0.58;80.61;100912.47;217740;1257;126806;-70
2024/01/21 18:19:24;;;;;;;;;;;;;;;0.60;80.99;100934.73;217788;1257;126830;-76
2024/01/21 18:24:30;;;;;;;;;;;;;;;0.60;80.95;100925.73;217283;1257;126069;-74
2024/01/21 18:29:34;;;;;;;;;;;;;;;0.60;81.02;100907.59;217702;1260;126755;-72
2024/01/21 18:34:40;;;;;;;;;;;;;;;0.60;80.96;100891.25;217556;1257;126890;-74
2024/01/21 18:39:44;;;;;;;;;;;;;;;0.62;80.64;100894.46;217872;1257;126211;-74
2024/01/21 18:44:49;;;;;;;;;;;;;;;0.60;80.25;100879.19;217616;1259;126161;-72
2024/01/21 18:49:53;;;;;;;;;;;;;;;0.60;80.38;100903.31;217784;1259;127089;-74
2024/01/21 18:54:58;;;;;;;;;;;;;;;0.59;79.93;100898.02;217497;1257;126428;-74
2024/01/21 19:00:03;;;;;;;;;;;;;;;0.55;79.85;100892.67;217592;1257;126698;-74
2024/01/21 19:05:08;;;;;;;;;;;;;;;0.49;79.67;100874.65;217463;1256;125820;-74
2024/01/21 19:10:12;;;;;;;;;;;;;;;0.43;79.47;100856.35;217659;1257;126828;-74
2024/01/21 19:15:17;;;;;;;;;;;;;;;0.39;79.32;100851.52;217702;1257;126143;-74
2024/01/21 19:20:22;;;;;;;;;;;;;;;0.33;79.19;100834.99;217734;1257;125869;-73
2024/01/21 19:25:27;;;;;;;;;;;;;;;0.28;79.11;100828.65;217440;1257;125990;-74
2024/01/21 19:30:34;;;;;;;;;;;;;;;0.25;79.25;100826.67;217868;1256;126532;-75
2024/01/21 19:35:38;;;;;;;;;;;;;;;0.21;79.07;100828.80;217442;1257;126192;-75
2024/01/21 19:40:43;;;;;;;;;;;;;;;0.18;78.72;100831.34;217536;1256;126214;-74
2024/01/21 19:45:48;;;;;;;;;;;;;;;0.14;78.65;100823.17;218246;1257;126643;-75
2024/01/21 19:50:52;;;;;;;;;;;;;;;0.10;78.62;100805.41;217395;1259;125984;-72
2024/01/21 19:55:56;;;;;;;;;;;;;;;0.06;78.55;100799.81;217669;1257;126794;-75
2024/01/21 20:01:08;;;;;;;;;;;;;;;0.02;78.33;100793.66;217553;1259;126061;-74
2024/01/21 20:06:12;;;;;;;;;;;;;;;-0.01;78.08;100789.05;217491;1257;126789;-75
2024/01/21 20:11:16;;;;;;;;;;;;;;;-0.03;77.91;100784.21;217334;1260;127307;-75
2024/01/21 20:16:20;;;;;;;;;;;;;;;-0.06;78.08;100776.61;217498;1260;126408;-71
2024/01/21 20:21:25;;;;;;;;;;;;;;;-0.09;77.89;100774.61;217361;1258;128434;-75
2024/01/21 20:26:29;;;;;;;;;;;;;;;-0.11;77.98;100776.06;217229;1258;127185;-76
2024/01/21 20:31:33;;;;;;;;;;;;;;;-0.13;77.89;100774.11;217194;1258;127082;-74
2024/01/21 20:36:38;;;;;;;;;;;;;;;-0.15;77.35;100772.60;217405;1256;126198;-74
2024/01/21 20:41:42;;;;;;;;;;;;;;;-0.17;77.37;100767.02;217264;1260;126511;-75
2024/01/21 20:46:47;;;;;;;;;;;;;;;-0.21;77.43;100765.04;217251;1259;126936;-75
2024/01/21 20:51:52;;;;;;;;;;;;;;;-0.23;76.87;100764.95;217412;1260;126805;-73
2024/01/21 20:56:57;;;;;;;;;;;;;;;-0.26;76.78;100765.21;217200;1257;126363;-74
2024/01/21 21:02:03;;;;;;;;;;;;;;;-0.27;76.44;100763.71;220193;1256;126055;-77
2024/01/21 21:07:07;;;;;;;;;;;;;;;-0.27;76.42;100761.09;220160;1256;126202;-78
2024/01/21 21:12:10;;;;;;;;;;;;;;;-0.25;76.27;100757.62;218206;1257;127507;-76
2024/01/21 21:17:16;;;;;;;;;;;;;;;-0.26;76.05;100743.23;217342;1260;125993;-77
2024/01/21 21:22:20;;;;;;;;;;;;;;;-0.30;75.71;100745.64;217224;1260;126889;-75
2024/01/21 21:27:24;;;;;;;;;;;;;;;-0.35;75.48;100743.31;217090;1256;127909;-75
2024/01/21 21:32:28;;;;;;;;;;;;;;;-0.38;75.71;100736.95;217457;1257;126462;-73
2024/01/21 21:37:33;;;;;;;;;;;;;;;-0.41;75.36;100734.02;217242;1256;126606;-75
2024/01/21 21:42:37;;;;;;;;;;;;;;;-0.43;75.08;100733.88;217052;1260;126298;-73
2024/01/21 21:47:43;;;;;;;;;;;;;;;-0.43;75.05;100740.55;217207;1260;126747;-74
2024/01/21 21:52:46;;;;;;;;;;;;;;;-0.44;75.08;100739.60;217196;1260;128101;-75
2024/01/21 21:57:51;;;;;;;;;;;;;;;-0.46;75.04;100752.88;217111;1256;128098;-74
2024/01/21 22:02:56;;;;;;;;;;;;;;;-0.48;74.66;100757.55;217184;1260;126580;-71
2024/01/21 22:08:00;;;;;;;;;;;;;;;-0.48;74.95;100762.45;217708;1257;126521;-75
2024/01/21 22:13:04;;;;;;;;;;;;;;;-0.46;74.46;100762.34;217128;1257;126200;-75
2024/01/21 22:18:10;;;;;;;;;;;;;;;-0.44;74.68;100754.45;217446;1259;126875;-74
2024/01/21 22:23:16;;;;;;;;;;;;;;;-0.43;74.58;100754.84;217475;1256;126136;-74
2024/01/21 22:28:21;;;;;;;;;;;;;;;-0.44;74.13;100748.85;217591;1257;127003;-72
2024/01/21 22:33:25;;;;;;;;;;;;;;;-0.46;73.97;100748.80;217772;1257;128343;-74
2024/01/21 22:38:29;;;;;;;;;;;;;;;-0.45;74.23;100747.15;217932;1256;126674;-75
2024/01/21 22:43:34;;;;;;;;;;;;;;;-0.44;74.02;100735.23;218433;1256;126953;-74
2024/01/21 22:48:38;;;;;;;;;;;;;;;-0.41;73.98;100739.15;217408;1257;128280;-74
2024/01/21 22:53:46;;;;;;;;;;;;;;;-0.39;73.56;100728.27;217637;1256;125927;-74
2024/01/21 22:59:06;;;;;;;;;;;;;;;-0.37;73.81;100720.21;217529;1256;126494;-73
2024/01/21 23:04:11;;;;;;;;;;;;;;;-0.34;73.76;100722.58;219537;1256;126130;-76
2024/01/21 23:09:15;;;;;;;;;;;;;;;-0.32;73.38;100718.05;217770;1255;126140;-76
2024/01/21 23:14:19;;;;;;;;;;;;;;;-0.31;73.23;100720.59;217564;1256;126549;-74
2024/01/21 23:19:24;;;;;;;;;;;;;;;-0.29;73.11;100713.97;218672;1255;126592;-71
2024/01/21 23:24:28;;;;;;;;;;;;;;;-0.29;73.12;100697.48;217325;1256;125936;-76
2024/01/21 23:29:32;;;;;;;;;;;;;;;-0.27;72.79;100699.40;217426;1259;127269;-76
2024/01/21 23:34:37;;;;;;;;;;;;;;;-0.25;73.02;100684.02;218598;1256;126190;-75
2024/01/21 23:39:41;;;;;;;;;;;;;;;-0.24;72.77;100671.60;217424;1256;126282;-75
2024/01/21 23:44:46;;;;;;;;;;;;;;;-0.29;72.27;100659.97;217654;1257;127067;-76
2024/01/21 23:49:50;;;;;;;;;;;;;;;-0.33;72.22;100649.71;217976;1256;126248;-75
2024/01/21 23:54:55;;;;;;;;;;;;;;;-0.36;72.10;100644.16;217714;1256;126443;-76
2024/01/21 23:59:59;;;;;;;;;;;;;;;-0.37;71.81;100632.88;217345;1257;128165;-75
